Chinggis Khaan International Airport
ZMUB : now visible

Airfield :











YOU CAN JOIN US ON...

 
LOGIN :

Register | Disclaimer

   EN    FR    IT 

 









Legend :    VFR   Marginal VFR   IFR   Intensive IFR   Very Intensive IFR
Visi :
Ceiling :
>= 8 km
>= 3000ft
5 to 8 km
1000 to 3000 ft
1500m to 5 km
500 to 1000 ft
800 to 1500m
200 to 500 ft
< 800m
< 200 ft
Symbols :   Thunderstorms  Fog  Heavy snow  Heavy precipitations  Wind > 20 kt







- Airport Elevation : 4364 ft
- IATA code : ULN


ZMUB - Chinggis Khaan International

CURRENT METAR :
  • 190230Z VRB01MPS 9999 -RA FEW013 FEW020 BKN030 16/14 Q1007 R14140095 NOSIG RMK QFE649.1 88 ESE SE CM MOP

EXPIRED METARs :
  • 190200Z 00000MPS 9999 -RA FEW013 FEW020 BKN030 16/14 Q1007 R14140095 NOSIG RMK QFE649.2 89 ESE SE CM MOP
  • 190130Z VRB01MPS 9999 -RA FEW007 FEW013 BKN030 16/14 Q1008 R14140095 NOSIG RMK QFE649.2 90 WNW SE CM MOP
  • 190100Z VRB01MPS 9999 -RA FEW007 FEW013 BKN030 15/14 Q1007 R14140095 NOSIG RMK QFE649.2 91 WNW SE CM MOP
  • 190030Z VRB01MPS 6000NW RA FEW007 BKN030 15/14 Q1007 R14140095 NOSIG RMK QFE649.2 92 WNW CM NW MO
  • 190000Z VRB01MPS 6000NW RA FEW017 BKN030 15/14 Q1007 NOSIG RMK QFE649.2 92 SE CM NW MO
  • 182330Z VRB01MPS 8000NW RA FEW007 FEW013 BKN030 15/14 Q1007 NOSIG RMK QFE649.2 91 WEW SE CM NW MO

TAF TAF ZMUB
Valid from the 19 at 00:00 until the 20 at 06:00 UTC


182255Z 1900/2006 VRB02MPS 8000 RA FEW017 FEW023CB BKN030 TX21/1907Z TN12/1921Z
BECMG 1903/1905 34005MPS 9999 NSW FEW027CB BKN030
TEMPO 1905/1913 VRB08MPS TS SHRA SCT027CB BKN030
BECMG 1911/1913 VRB02MPS FEW030CB SCT033
ZMUB FIR / Asia



MET'MAP, your aeronautical weather chart ! - Copyright ORBIFLY December 2007 - Disclaimer

ORBIFLY MET'MAP TEAM :

Programming & Development : Alexandra Zaïnal
Concept & Development : Baudouin d'Aumeries
Co-Development & Prog : Marc-Olivier Méhu
Technical & hardware support : Manuel Goepfert

Contact : metmap@orbifly.com




SOURCES & CREDITS :

   NOAA       Earth
Advisory